Sibiu, Romania
Current Conditions -  °F | °C
As of 11:00 AM on Wednesday 22 Oct 2014 (Local Time) from LRSB Reporting Station
Clear Clear  
Wind Chill: 63°   Ceiling: Unl
Heat Index: 63°   Visibility: 6mi
Dew Point: 48°   Wind: 14mph
Humidity: 59%   Direction: 130°SE
Pressure: 29.59"   Gusts: NA
Location:  45.79°N, 24.13°E
Report Text: LRSB 220800Z 13012KT CAVOK 17/09 Q1002 NOSIG
Loading
Personal Weather Stations






























Interactive Weather Map
Tropical Storm Tracking
New forecast layout! Learn more

10-Day Weather Forecast

Advertisements
Track Severe Weather on mobile